Maersk Missouri — WAHV — position and weather

sailwx.info

Track history (hours):
 
Tides and Currents Weather Stations Pressure Air Temp Water Temp Dewpoint Dewpoint Depression Visibility Wind Speed Wind Dir Waves Ship Positions

Maersk Missouri

Owner: MAERSK LINE, LIMITED, Norfolk, VA. More information available from US FCC via Universal Licensing System and Coast Guard Vessel Documentation Center.

Last reported at 2014-Oct-25 13:31 UTC. Time now 2014-Oct-25 17:40 UTC.
Position N 53°24' E 004°31'.

Type: Cargo ship. MMSI: 369708000.

Date/timePositionNaut miles runAvg speedWind from/ knotsBaromVisibWave heightAir tempDewpointWater temp
2014-Oct-25 13:31N 53°24' E 004°31'1919.3
2014-Oct-25 12:33N 53°32' E 004°59'1919.2
2014-Oct-25 11:33N 53°39' E 005°29'1818.4
2014-Oct-25 10:33N 53°46' E 005°58'5717.4
2014-Oct-25 07:17N 53°58' E 007°32'1215.7
2014-Oct-25 06:33N 53°53' E 007°50'1615.8
2014-Oct-25 05:33N 53°45' E 008°13'1414.5
2014-Oct-25 04:33N 53°36' E 008°31'0 0.1
2014-Oct-25 03:33N 53°36' E 008°31'0 0.0
2014-Oct-25 02:33N 53°36' E 008°31'0 0.0
2014-Oct-25 01:31N 53°36' E 008°31'0 0.0
2014-Oct-25 00:32N 53°36' E 008°31'0 0.0
2014-Oct-24 23:32N 53°36' E 008°31'0 0.0
2014-Oct-24 22:33N 53°36' E 008°31'0 0.0
2014-Oct-24 21:31N 53°36' E 008°31'0 0.0
2014-Oct-24 20:31N 53°36' E 008°31'0 0.0
2014-Oct-24 19:32N 53°36' E 008°31'0 0.0
2014-Oct-24 18:33N 53°36' E 008°31'0 0.0
2014-Oct-24 17:33N 53°36' E 008°31'0 0.0
2014-Oct-24 16:31N 53°36' E 008°31'0 0.0
2014-Oct-24 15:32N 53°36' E 008°31'0 0.0
2014-Oct-24 14:32N 53°36' E 008°31'0 0.0
2014-Oct-24 13:32N 53°36' E 008°31'0 0.0
2014-Oct-24 12:33N 53°36' E 008°31'0 0.0
2014-Oct-24 11:33N 53°36' E 008°31'0 0.1
2014-Oct-24 10:33N 53°35' E 008°31'7 6.9
2014-Oct-24 09:33N 53°40' E 008°23'1312.8
2014-Oct-24 08:33N 53°49' E 008°07'1212.0
2014-Oct-24 07:31N 53°52' E 007°46'6 4.2
2014-Oct-24 06:11N 53°53' E 007°37'28 9.8
2014-Oct-24 03:19N 53°50' E 006°50'1011.6
2014-Oct-24 02:29N 53°47' E 006°34'1211.7
2014-Oct-24 01:25N 53°44' E 006°14'1011.9
2014-Oct-24 00:33N 53°41' E 005°57'1212.1
2014-Oct-23 23:33N 53°36' E 005°38'1212.3
2014-Oct-23 22:33N 53°32' E 005°19'1312.7
2014-Oct-23 21:33N 53°28' E 004°59'1212.2
2014-Oct-23 20:32N 53°22' E 004°40'1312.8
2014-Oct-23 19:31N 53°10' E 004°31'2513.0
2014-Oct-23 17:33N 52°48' E 004°10'1413.5
2014-Oct-23 16:33N 52°36' E 003°59'1413.7
2014-Oct-23 15:33N 52°23' E 003°53'1313.4
2014-Oct-23 14:33N 52°10' E 003°54'1212.1
2014-Oct-23 13:33N 51°59' E 004°04'2 1.8
2014-Oct-23 12:33N 51°57' E 004°03'0 0.0
2014-Oct-23 11:33N 51°57' E 004°03'0 0.0
2014-Oct-23 10:31N 51°57' E 004°03'0 0.0
2014-Oct-23 09:31N 51°57' E 004°03'0 0.0
2014-Oct-23 08:32N 51°57' E 004°03'0 0.0
2014-Oct-23 07:32N 51°57' E 004°03'0 0.0
2014-Oct-23 06:33N 51°57' E 004°03'0 0.0
2014-Oct-23 05:31N 51°57' E 004°03'0 0.0
2014-Oct-23 04:32N 51°57' E 004°03'0 0.0
2014-Oct-23 03:32N 51°57' E 004°03'0 0.0
2014-Oct-23 02:33N 51°57' E 004°03'0 0.0
2014-Oct-23 01:33N 51°57' E 004°03'0 0.0
2014-Oct-23 00:31N 51°57' E 004°03'0 0.0
2014-Oct-22 23:32N 51°57' E 004°03'0 0.0
2014-Oct-22 22:32N 51°57' E 004°03'0 0.0
2014-Oct-22 21:30N 51°57' E 004°03'0 0.0
2014-Oct-22 20:31N 51°57' E 004°03'0 0.0
2014-Oct-22 19:28N 51°57' E 004°03'0 0.0
2014-Oct-22 18:32N 51°57' E 004°03'0 0.0
2014-Oct-22 17:32N 51°57' E 004°03'0 0.0
2014-Oct-22 16:30N 51°57' E 004°03'1 0.6
2014-Oct-22 15:33N 51°58' E 004°04'1 1.2
2014-Oct-22 14:33N 51°59' E 004°04'9 9.2
2014-Oct-22 13:33N 51°60' E 003°50'4 3.7
2014-Oct-22 12:33N 51°59' E 003°44'2 1.8
2014-Oct-22 11:34N 51°59' E 003°41'1 1.1
2014-Oct-22 10:33N 51°59' E 003°39'1 0.8
2014-Oct-22 09:33N 51°59' E 003°39'1 0.9
2014-Oct-22 08:33N 51°59' E 003°37'8 7.6
2014-Oct-22 07:33N 51°56' E 003°25'3912.9
2014-Oct-22 04:30N 51°53' E 002°22'1819.5
2014-Oct-22 03:33N 51°48' E 001°53'9 8.9
2014-Oct-22 02:32N 51°53' E 001°40'0 0.0
2014-Oct-22 01:33N 51°53' E 001°40'0 0.0
2014-Oct-22 00:33N 51°53' E 001°40'0 0.0
2014-Oct-21 23:31N 51°53' E 001°40'0 0.1
2014-Oct-21 22:32N 51°53' E 001°40'0 0.1
2014-Oct-21 21:32N 51°53' E 001°40'0 0.1
2014-Oct-21 20:33N 51°53' E 001°40'0 0.0
2014-Oct-21 19:34N 51°53' E 001°40'0 0.1
2014-Oct-21 18:31N 51°53' E 001°40'0 0.3
2014-Oct-21 17:34N 51°53' E 001°40'1312.6
2014-Oct-21 16:33N 51°52' E 002°00'2713.7
2014-Oct-21 14:33N 51°57' E 002°44'1313.4
2014-Oct-21 13:33N 51°58' E 003°06'10 9.0
2014-Oct-21 12:28N 51°58' E 003°21'1415.6
2014-Oct-21 11:33N 51°54' E 002°59'3214.1
2014-Oct-21 09:15N 51°52' E 002°07'912.9
2014-Oct-21 08:33N 51°49' E 001°53'1211.9
2014-Oct-21 07:33N 51°52' E 001°35'1111.0
2014-Oct-21 06:33N 51°57' E 001°19'1 0.8
2014-Oct-21 05:31N 51°57' E 001°18'0 0.0
2014-Oct-21 04:31N 51°57' E 001°18'0 0.0
2014-Oct-21 03:32N 51°57' E 001°18'0 0.0
2014-Oct-21 02:33N 51°57' E 001°18'0 0.0
2014-Oct-21 01:33N 51°57' E 001°18'0 0.0
2014-Oct-21 00:31N 51°57' E 001°18'0 0.0
2014-Oct-20 23:32N 51°57' E 001°18'0 0.0
2014-Oct-20 22:32N 51°57' E 001°18'0 0.0
2014-Oct-20 21:33N 51°57' E 001°18'0 0.0
2014-Oct-20 20:31N 51°57' E 001°18'0 0.0
2014-Oct-20 19:31N 51°57' E 001°18'0 0.0
2014-Oct-20 18:32N 51°57' E 001°18'0 0.0
2014-Oct-20 17:33N 51°57' E 001°18'3 2.6
2014-Oct-20 16:33N 51°56' E 001°21'1313.0
2014-Oct-20 15:33N 51°52' E 001°41'5 5.3
2014-Oct-20 14:33N 51°49' E 001°48'1414.0
2014-Oct-20 13:33N 51°35' E 001°48'1414.3
2014-Oct-20 12:33N 51°20' E 001°44'1414.0
2014-Oct-20 11:33N 51°07' E 001°41'1514.6
2014-Oct-20 10:33N 50°54' E 001°30'1414.1
2014-Oct-20 09:33N 50°42' E 001°18'10114.5
2014-Oct-20 02:34N 50°24' W 001°18'5313.3
2014-Oct-19 22:32N 50°24' W 002°42'1413.8
2014-Oct-19 21:34N 50°25' W 003°04'1413.8
2014-Oct-19 20:33N 50°25' W 003°25'1312.6
2014-Oct-19 19:33N 50°13' W 003°34'27814.2
2014-Oct-19 00:00N 49°18' W 010°36'8213.7 230 / 321006.027.0 3.014.012.014.0
2014-Oct-18 18:00N 49°12' W 012°42'17914.9 250 / 301000.410.8 4.018.015.015.9
2014-Oct-18 06:00N 48°48' W 017°12'21017.5 230 / 35991.7 15.214.514.9
2014-Oct-17 18:00N 48°12' W 022°24'33218.4 270 / 30978.727.0 4.515.515.015.7
2014-Oct-17 00:00N 47°36' W 030°36'21918.2 330 / 33978.0 5.4 3.012.010.015.0
2014-Oct-16 12:00N 47°30' W 036°00'11118.5 030 / 27978.5 5.4 3.511.011.014.2
2014-Oct-16 06:00N 47°12' W 038°42'12020.1 180 / 25982.7 13.013.014.6
2014-Oct-16 00:00N 46°36' W 041°30'   210 / 18996.027.0 2.011.011.011.0
Track history (hours):
 
Tides and Currents Weather Stations Pressure Air Temp Water Temp Dewpoint Dewpoint Depression Visibility Wind Speed Wind Dir Waves Ship Positions

Maersk Missouri

Owner: MAERSK LINE, LIMITED, Norfolk, VA. More information available from US FCC via Universal Licensing System and Coast Guard Vessel Documentation Center.

Last reported at 2014-Oct-25 13:31 UTC. Time now 2014-Oct-25 17:40 UTC.
Position N 53°24' E 004°31'.

Type: Cargo ship. MMSI: 369708000.

Date/timePositionNaut miles runAvg speedWind from/ knotsBaromVisibWave heightAir tempDewpointWater temp
2014-Oct-25 13:31N 53°24' E 004°31'1919.3
2014-Oct-25 12:33N 53°32' E 004°59'1919.2
2014-Oct-25 11:33N 53°39' E 005°29'1818.4
2014-Oct-25 10:33N 53°46' E 005°58'5717.4
2014-Oct-25 07:17N 53°58' E 007°32'1215.7
2014-Oct-25 06:33N 53°53' E 007°50'1615.8
2014-Oct-25 05:33N 53°45' E 008°13'1414.5
2014-Oct-25 04:33N 53°36' E 008°31'0 0.1
2014-Oct-25 03:33N 53°36' E 008°31'0 0.0
2014-Oct-25 02:33N 53°36' E 008°31'0 0.0
2014-Oct-25 01:31N 53°36' E 008°31'0 0.0
2014-Oct-25 00:32N 53°36' E 008°31'0 0.0
2014-Oct-24 23:32N 53°36' E 008°31'0 0.0
2014-Oct-24 22:33N 53°36' E 008°31'0 0.0
2014-Oct-24 21:31N 53°36' E 008°31'0 0.0
2014-Oct-24 20:31N 53°36' E 008°31'0 0.0
2014-Oct-24 19:32N 53°36' E 008°31'0 0.0
2014-Oct-24 18:33N 53°36' E 008°31'0 0.0
2014-Oct-24 17:33N 53°36' E 008°31'0 0.0
2014-Oct-24 16:31N 53°36' E 008°31'0 0.0
2014-Oct-24 15:32N 53°36' E 008°31'0 0.0
2014-Oct-24 14:32N 53°36' E 008°31'0 0.0
2014-Oct-24 13:32N 53°36' E 008°31'0 0.0
2014-Oct-24 12:33N 53°36' E 008°31'0 0.0
2014-Oct-24 11:33N 53°36' E 008°31'0 0.1
2014-Oct-24 10:33N 53°35' E 008°31'7 6.9
2014-Oct-24 09:33N 53°40' E 008°23'1312.8
2014-Oct-24 08:33N 53°49' E 008°07'1212.0
2014-Oct-24 07:31N 53°52' E 007°46'6 4.2
2014-Oct-24 06:11N 53°53' E 007°37'28 9.8
2014-Oct-24 03:19N 53°50' E 006°50'1011.6
2014-Oct-24 02:29N 53°47' E 006°34'1211.7
2014-Oct-24 01:25N 53°44' E 006°14'1011.9
2014-Oct-24 00:33N 53°41' E 005°57'1212.1
2014-Oct-23 23:33N 53°36' E 005°38'1212.3
2014-Oct-23 22:33N 53°32' E 005°19'1312.7
2014-Oct-23 21:33N 53°28' E 004°59'1212.2
2014-Oct-23 20:32N 53°22' E 004°40'1312.8
2014-Oct-23 19:31N 53°10' E 004°31'2513.0
2014-Oct-23 17:33N 52°48' E 004°10'1413.5
2014-Oct-23 16:33N 52°36' E 003°59'1413.7
2014-Oct-23 15:33N 52°23' E 003°53'1313.4
2014-Oct-23 14:33N 52°10' E 003°54'1212.1
2014-Oct-23 13:33N 51°59' E 004°04'2 1.8
2014-Oct-23 12:33N 51°57' E 004°03'0 0.0
2014-Oct-23 11:33N 51°57' E 004°03'0 0.0
2014-Oct-23 10:31N 51°57' E 004°03'0 0.0
2014-Oct-23 09:31N 51°57' E 004°03'0 0.0
2014-Oct-23 08:32N 51°57' E 004°03'0 0.0
2014-Oct-23 07:32N 51°57' E 004°03'0 0.0
2014-Oct-23 06:33N 51°57' E 004°03'0 0.0
2014-Oct-23 05:31N 51°57' E 004°03'0 0.0
2014-Oct-23 04:32N 51°57' E 004°03'0 0.0
2014-Oct-23 03:32N 51°57' E 004°03'0 0.0
2014-Oct-23 02:33N 51°57' E 004°03'0 0.0
2014-Oct-23 01:33N 51°57' E 004°03'0 0.0
2014-Oct-23 00:31N 51°57' E 004°03'0 0.0
2014-Oct-22 23:32N 51°57' E 004°03'0 0.0
2014-Oct-22 22:32N 51°57' E 004°03'0 0.0
2014-Oct-22 21:30N 51°57' E 004°03'0 0.0
2014-Oct-22 20:31N 51°57' E 004°03'0 0.0
2014-Oct-22 19:28N 51°57' E 004°03'0 0.0
2014-Oct-22 18:32N 51°57' E 004°03'0 0.0
2014-Oct-22 17:32N 51°57' E 004°03'0 0.0
2014-Oct-22 16:30N 51°57' E 004°03'1 0.6
2014-Oct-22 15:33N 51°58' E 004°04'1 1.2
2014-Oct-22 14:33N 51°59' E 004°04'9 9.2
2014-Oct-22 13:33N 51°60' E 003°50'4 3.7
2014-Oct-22 12:33N 51°59' E 003°44'2 1.8
2014-Oct-22 11:34N 51°59' E 003°41'1 1.1
2014-Oct-22 10:33N 51°59' E 003°39'1 0.8
2014-Oct-22 09:33N 51°59' E 003°39'1 0.9
2014-Oct-22 08:33N 51°59' E 003°37'8 7.6
2014-Oct-22 07:33N 51°56' E 003°25'3912.9
2014-Oct-22 04:30N 51°53' E 002°22'1819.5
2014-Oct-22 03:33N 51°48' E 001°53'9 8.9
2014-Oct-22 02:32N 51°53' E 001°40'0 0.0
2014-Oct-22 01:33N 51°53' E 001°40'0 0.0
2014-Oct-22 00:33N 51°53' E 001°40'0 0.0
2014-Oct-21 23:31N 51°53' E 001°40'0 0.1
2014-Oct-21 22:32N 51°53' E 001°40'0 0.1
2014-Oct-21 21:32N 51°53' E 001°40'0 0.1
2014-Oct-21 20:33N 51°53' E 001°40'0 0.0
2014-Oct-21 19:34N 51°53' E 001°40'0 0.1
2014-Oct-21 18:31N 51°53' E 001°40'0 0.3
2014-Oct-21 17:34N 51°53' E 001°40'1312.6
2014-Oct-21 16:33N 51°52' E 002°00'2713.7
2014-Oct-21 14:33N 51°57' E 002°44'1313.4
2014-Oct-21 13:33N 51°58' E 003°06'10 9.0
2014-Oct-21 12:28N 51°58' E 003°21'1415.6
2014-Oct-21 11:33N 51°54' E 002°59'3214.1
2014-Oct-21 09:15N 51°52' E 002°07'912.9
2014-Oct-21 08:33N 51°49' E 001°53'1211.9
2014-Oct-21 07:33N 51°52' E 001°35'1111.0
2014-Oct-21 06:33N 51°57' E 001°19'1 0.8
2014-Oct-21 05:31N 51°57' E 001°18'0 0.0
2014-Oct-21 04:31N 51°57' E 001°18'0 0.0
2014-Oct-21 03:32N 51°57' E 001°18'0 0.0
2014-Oct-21 02:33N 51°57' E 001°18'0 0.0
2014-Oct-21 01:33N 51°57' E 001°18'0 0.0
2014-Oct-21 00:31N 51°57' E 001°18'0 0.0
2014-Oct-20 23:32N 51°57' E 001°18'0 0.0
2014-Oct-20 22:32N 51°57' E 001°18'0 0.0
2014-Oct-20 21:33N 51°57' E 001°18'0 0.0
2014-Oct-20 20:31N 51°57' E 001°18'0 0.0
2014-Oct-20 19:31N 51°57' E 001°18'0 0.0
2014-Oct-20 18:32N 51°57' E 001°18'0 0.0
2014-Oct-20 17:33N 51°57' E 001°18'3 2.6
2014-Oct-20 16:33N 51°56' E 001°21'1313.0
2014-Oct-20 15:33N 51°52' E 001°41'5 5.3
2014-Oct-20 14:33N 51°49' E 001°48'1414.0
2014-Oct-20 13:33N 51°35' E 001°48'1414.3
2014-Oct-20 12:33N 51°20' E 001°44'1414.0
2014-Oct-20 11:33N 51°07' E 001°41'1514.6
2014-Oct-20 10:33N 50°54' E 001°30'1414.1
2014-Oct-20 09:33N 50°42' E 001°18'10114.5
2014-Oct-20 02:34N 50°24' W 001°18'5313.3
2014-Oct-19 22:32N 50°24' W 002°42'1413.8
2014-Oct-19 21:34N 50°25' W 003°04'1413.8
2014-Oct-19 20:33N 50°25' W 003°25'1312.6
2014-Oct-19 19:33N 50°13' W 003°34'27814.2
2014-Oct-19 00:00N 49°18' W 010°36'8213.7 230 / 321006.027.0 3.014.012.014.0
2014-Oct-18 18:00N 49°12' W 012°42'17914.9 250 / 301000.410.8 4.018.015.015.9
2014-Oct-18 06:00N 48°48' W 017°12'21017.5 230 / 35991.7 15.214.514.9
2014-Oct-17 18:00N 48°12' W 022°24'33218.4 270 / 30978.727.0 4.515.515.015.7
2014-Oct-17 00:00N 47°36' W 030°36'21918.2 330 / 33978.0 5.4 3.012.010.015.0
2014-Oct-16 12:00N 47°30' W 036°00'11118.5 030 / 27978.5 5.4 3.511.011.014.2
2014-Oct-16 06:00N 47°12' W 038°42'12020.1 180 / 25982.7 13.013.014.6
2014-Oct-16 00:00N 46°36' W 041°30'   210 / 18996.027.0 2.011.011.011.0

Dump ship's entire track history